createdAt,value
2023-02-24T00:02:04.872Z,13.87
2023-02-24T00:04:33.357Z,14.33
2023-02-24T00:07:00.817Z,13.33
2023-02-24T00:09:30.240Z,12.50
2023-02-24T00:11:59.952Z,12.47
2023-02-24T00:14:28.924Z,12.50
2023-02-24T00:16:56.513Z,11.87
2023-02-24T00:19:27.090Z,12.53
2023-02-24T00:21:55.179Z,12.63
2023-02-24T00:24:23.010Z,12.40
2023-02-24T00:26:54.252Z,12.70
2023-02-24T00:29:24.885Z,13.37
2023-02-24T00:31:59.012Z,13.27
2023-02-24T00:34:27.940Z,13.40
2023-02-24T00:36:57.320Z,14.73
2023-02-24T00:39:30.417Z,15.00
2023-02-24T00:42:04.436Z,15.40
2023-02-24T00:44:33.803Z,14.53
2023-02-24T00:47:02.389Z,14.50
2023-02-24T00:49:31.969Z,14.97
2023-02-24T00:51:59.755Z,15.07
2023-02-24T00:54:28.286Z,15.60
2023-02-24T00:56:57.009Z,14.30
2023-02-24T00:59:25.094Z,14.73
2023-02-24T01:01:52.751Z,14.63
2023-02-24T01:04:21.261Z,12.80
2023-02-24T01:06:50.879Z,11.60
2023-02-24T01:09:19.500Z,11.47
2023-02-24T01:12:17.123Z,10.47
2023-02-24T01:14:45.405Z,11.20
2023-02-24T01:17:12.979Z,10.93
2023-02-24T01:19:44.690Z,10.03
2023-02-24T01:22:14.846Z,9.77
2023-02-24T01:24:43.551Z,10.37
2023-02-24T01:27:12.335Z,10.40
2023-02-24T01:29:40.147Z,10.00
2023-02-24T01:32:12.982Z,10.20
2023-02-24T01:34:42.579Z,10.17
2023-02-24T01:37:10.280Z,9.07
2023-02-24T01:39:39.738Z,8.77
2023-02-24T01:42:07.677Z,9.80
2023-02-24T01:44:54.149Z,9.73
2023-02-24T01:47:23.154Z,10.17
2023-02-24T01:49:52.645Z,9.47
2023-02-24T01:52:21.689Z,8.98
2023-02-24T01:54:55.118Z,9.77
2023-02-24T01:57:24.602Z,9.17
2023-02-24T01:59:53.131Z,9.03
2023-02-24T02:02:23.208Z,9.13
2023-02-24T02:04:51.996Z,10.10
2023-02-24T02:07:21.778Z,10.20
2023-02-24T02:09:50.672Z,10.13
2023-02-24T02:12:18.275Z,9.90
2023-02-24T02:14:47.939Z,9.80
2023-02-24T02:17:20.414Z,10.00
2023-02-24T02:20:07.035Z,11.93
2023-02-24T02:22:50.674Z,11.30
2023-02-24T02:25:25.430Z,10.57
2023-02-24T02:28:08.381Z,10.43
2023-02-24T02:30:44.056Z,9.67
2023-02-24T02:33:27.653Z,9.60
2023-02-24T02:36:00.573Z,10.40
2023-02-24T02:38:34.294Z,10.53
2023-02-24T02:41:07.039Z,9.93
2023-02-24T02:43:39.558Z,11.03
2023-02-24T02:46:09.050Z,10.03
2023-02-24T02:48:41.131Z,10.70
2023-02-24T02:51:11.337Z,11.03
2023-02-24T02:53:42.043Z,11.20
2023-02-24T02:56:12.969Z,10.90
2023-02-24T02:58:43.065Z,6.23
2023-02-24T03:01:11.571Z,8.60
2023-02-24T03:03:41.588Z,7.97
2023-02-24T03:06:13.004Z,8.60
2023-02-24T03:08:43.280Z,8.97
2023-02-24T03:11:14.045Z,8.53
2023-02-24T03:13:43.861Z,7.43
2023-02-24T03:16:12.566Z,7.90
2023-02-24T03:18:41.334Z,8.73
2023-02-24T03:21:11.781Z,7.97
2023-02-24T03:23:45.925Z,7.97
2023-02-24T03:26:17.500Z,8.10
2023-02-24T03:28:51.549Z,7.37
2023-02-24T03:31:24.233Z,6.80
2023-02-24T03:34:03.595Z,6.90
2023-02-24T03:36:31.598Z,6.43
2023-02-24T03:39:01.978Z,6.87
2023-02-24T03:41:38.520Z,5.27
2023-02-24T03:44:07.890Z,5.70
2023-02-24T03:46:35.706Z,4.63
2023-02-24T03:49:08.594Z,3.57
2023-02-24T03:51:37.276Z,2.43
2023-02-24T03:54:13.338Z,3.33
2023-02-24T03:56:48.528Z,3.50
2023-02-24T03:59:23.727Z,3.80
2023-02-24T04:01:57.815Z,3.10
2023-02-24T04:04:32.131Z,3.17
2023-02-24T04:07:15.320Z,2.40
2023-02-24T04:09:50.153Z,2.60
2023-02-24T04:12:19.808Z,2.67
2023-02-24T04:14:52.216Z,3.00
2023-02-24T04:17:21.761Z,3.27
2023-02-24T04:19:51.362Z,2.57
2023-02-24T04:22:24.440Z,2.63
2023-02-24T04:24:58.037Z,2.50
2023-02-24T04:27:28.143Z,3.27
2023-02-24T04:30:04.964Z,3.20
2023-02-24T04:32:33.245Z,3.47
2023-02-24T04:35:06.055Z,3.27
2023-02-24T04:37:37.081Z,3.40
2023-02-24T04:40:10.618Z,3.20
2023-02-24T04:42:40.973Z,3.10
2023-02-24T04:45:12.867Z,2.43
2023-02-24T04:47:42.370Z,3.07
2023-02-24T04:50:11.384Z,3.50
2023-02-24T04:52:39.188Z,2.90
2023-02-24T04:55:10.816Z,3.10
2023-02-24T04:57:38.575Z,3.30
2023-02-24T05:00:20.797Z,3.13
2023-02-24T05:02:48.892Z,3.17
2023-02-24T05:05:16.883Z,3.00
2023-02-24T05:07:47.625Z,2.57
2023-02-24T05:10:18.749Z,3.00
2023-02-24T05:12:46.106Z,2.90
2023-02-24T05:15:13.822Z,3.60
2023-02-24T05:17:42.048Z,3.53
2023-02-24T05:20:27.695Z,3.70
2023-02-24T05:22:55.198Z,3.40
2023-02-24T05:25:25.189Z,3.20
2023-02-24T05:27:52.664Z,3.60
2023-02-24T05:30:20.807Z,3.27
2023-02-24T05:32:48.241Z,4.00
2023-02-24T05:35:15.648Z,3.80
2023-02-24T05:37:43.115Z,4.03
2023-02-24T05:40:13.269Z,3.53
2023-02-24T05:42:45.040Z,3.77
2023-02-24T05:45:12.801Z,3.87
2023-02-24T05:47:40.202Z,3.93
2023-02-24T05:50:09.459Z,3.40
2023-02-24T05:52:37.816Z,2.97
2023-02-24T05:55:07.156Z,2.30
2023-02-24T05:57:37.029Z,2.50
2023-02-24T06:00:13.185Z,2.10
2023-02-24T06:02:43.100Z,2.23
2023-02-24T06:05:25.258Z,2.80
2023-02-24T06:08:02.907Z,2.20
2023-02-24T06:10:33.000Z,2.83
2023-02-24T06:13:01.825Z,2.60
2023-02-24T06:15:31.840Z,2.47
2023-02-24T06:18:00.894Z,2.10
2023-02-24T06:20:29.031Z,2.00
2023-02-24T06:22:57.971Z,1.53
2023-02-24T06:25:25.793Z,1.90
2023-02-24T06:27:54.695Z,1.70
2023-02-24T06:30:23.294Z,1.50
2023-02-24T06:32:52.339Z,1.77
2023-02-24T06:35:19.920Z,1.60
2023-02-24T06:37:47.932Z,1.40
2023-02-24T06:40:17.777Z,1.53
2023-02-24T06:42:45.514Z,1.37
2023-02-24T06:45:12.992Z,1.37
2023-02-24T06:47:40.852Z,1.30
2023-02-24T06:50:10.236Z,1.20
2023-02-24T06:52:37.629Z,1.00
2023-02-24T06:55:05.631Z,1.23
2023-02-24T06:57:34.366Z,0.87
2023-02-24T07:00:16.475Z,1.17
2023-02-24T07:02:43.854Z,0.97
2023-02-24T07:05:14.757Z,1.03
2023-02-24T07:07:45.791Z,0.83
2023-02-24T07:10:14.228Z,1.10
2023-02-24T07:12:42.233Z,1.00
2023-02-24T07:15:10.040Z,1.00
2023-02-24T07:17:37.670Z,0.70
2023-02-24T07:20:11.760Z,1.30
2023-02-24T07:22:40.439Z,1.00
2023-02-24T07:25:08.148Z,0.80
2023-02-24T07:27:36.672Z,0.90
2023-02-24T07:30:06.365Z,0.70
2023-02-24T07:32:33.744Z,0.90
2023-02-24T07:35:01.114Z,1.03
2023-02-24T07:37:31.614Z,1.50
2023-02-24T07:40:01.829Z,1.23
2023-02-24T07:42:30.613Z,1.33
2023-02-24T07:44:58.096Z,1.33
2023-02-24T07:47:26.464Z,1.33
2023-02-24T07:49:55.336Z,1.20
2023-02-24T07:52:22.699Z,1.27
2023-02-24T07:54:50.024Z,1.33
2023-02-24T07:57:18.983Z,1.03
2023-02-24T07:59:47.049Z,0.87
2023-02-24T08:02:15.082Z,0.90
2023-02-24T08:04:48.167Z,1.00
2023-02-24T08:07:15.736Z,0.73
2023-02-24T08:10:07.896Z,0.67
2023-02-24T08:12:42.485Z,0.80
2023-02-24T08:15:17.140Z,0.80
2023-02-24T08:17:47.205Z,1.07
2023-02-24T08:20:25.023Z,1.00
2023-02-24T08:22:53.533Z,1.10
2023-02-24T08:25:22.621Z,1.13
2023-02-24T08:28:12.127Z,1.23
2023-02-24T08:30:44.734Z,0.80
2023-02-24T08:33:15.837Z,1.40
2023-02-24T08:35:44.753Z,0.90
2023-02-24T08:38:14.853Z,1.10
2023-02-24T08:40:51.092Z,1.20
2023-02-24T08:43:31.100Z,1.20
2023-02-24T08:46:00.836Z,1.60
2023-02-24T08:48:37.370Z,1.20
2023-02-24T08:51:07.710Z,1.40
2023-02-24T08:53:35.443Z,1.30
2023-02-24T08:56:09.413Z,1.30
2023-02-24T08:58:40.920Z,1.00
2023-02-24T09:01:18.880Z,1.47
2023-02-24T09:03:47.505Z,1.17
2023-02-24T09:06:16.819Z,1.27
2023-02-24T09:08:45.169Z,1.37
2023-02-24T09:11:13.914Z,1.77
2023-02-24T09:13:51.514Z,1.50
2023-02-24T09:16:23.636Z,1.47
2023-02-24T09:19:12.044Z,1.10
2023-02-24T09:21:56.916Z,1.30
2023-02-24T09:24:27.827Z,1.30
2023-02-24T09:26:58.438Z,1.10
2023-02-24T09:29:49.198Z,1.30
2023-02-24T09:32:17.059Z,1.07
2023-02-24T09:34:44.879Z,1.00
2023-02-24T09:37:24.838Z,1.43
2023-02-24T09:40:18.687Z,1.30
2023-02-24T09:42:58.206Z,1.50
2023-02-24T09:45:33.869Z,2.47
2023-02-24T09:48:10.330Z,3.30
2023-02-24T09:51:02.236Z,2.13
2023-02-24T09:53:41.303Z,1.30
2023-02-24T09:56:16.862Z,4.50
2023-02-24T09:58:48.652Z,9.73
2023-02-24T10:01:30.775Z,2.57
2023-02-24T10:04:14.776Z,2.43
2023-02-24T10:06:48.336Z,2.80
2023-02-24T10:09:21.591Z,3.93
2023-02-24T10:11:54.648Z,3.77
2023-02-24T10:14:29.433Z,5.60
2023-02-24T10:17:30.478Z,3.90
2023-02-24T10:20:01.246Z,2.07
2023-02-24T10:22:34.596Z,2.17
2023-02-24T10:25:11.991Z,2.37
2023-02-24T10:27:44.807Z,2.40
2023-02-24T10:30:19.669Z,2.10
2023-02-24T10:32:52.038Z,2.00
2023-02-24T10:35:20.948Z,3.90
2023-02-24T10:37:49.339Z,1.70
2023-02-24T10:40:26.324Z,2.50
2023-02-24T10:43:03.953Z,2.43
2023-02-24T10:45:34.737Z,7.93
2023-02-24T10:48:08.560Z,3.93
2023-02-24T10:50:54.898Z,4.87
2023-02-24T10:53:34.963Z,5.20
2023-02-24T10:56:26.640Z,3.63
2023-02-24T10:59:20.764Z,3.00
2023-02-24T11:01:59.217Z,3.40
2023-02-24T11:04:54.170Z,2.67
2023-02-24T11:07:43.695Z,3.50
2023-02-24T11:10:13.855Z,2.90
2023-02-24T11:13:09.294Z,2.70
2023-02-24T11:15:56.198Z,2.53
2023-02-24T11:18:25.064Z,3.43
2023-02-24T11:20:55.140Z,3.40
2023-02-24T11:23:24.556Z,2.87
2023-02-24T11:25:53.322Z,3.43
2023-02-24T11:28:35.901Z,3.40
2023-02-24T11:31:07.196Z,3.10
2023-02-24T11:33:42.419Z,3.17
2023-02-24T11:36:15.669Z,2.43
2023-02-24T11:38:46.101Z,2.93
2023-02-24T11:41:18.034Z,1.87
2023-02-24T11:43:50.613Z,3.07
2023-02-24T11:46:20.161Z,3.47
2023-02-24T11:48:51.836Z,2.93
2023-02-24T11:51:23.495Z,3.47
2023-02-24T11:53:52.962Z,2.83
2023-02-24T11:56:23.796Z,3.10
2023-02-24T11:58:53.508Z,2.50
2023-02-24T12:01:24.382Z,3.20
2023-02-24T12:03:53.709Z,3.50
2023-02-24T12:06:25.339Z,2.50
2023-02-24T12:08:54.763Z,4.77
2023-02-24T12:11:32.881Z,3.20
2023-02-24T12:14:14.162Z,2.63
2023-02-24T12:16:46.028Z,2.97
2023-02-24T12:19:18.430Z,2.30
2023-02-24T12:21:50.134Z,2.47
2023-02-24T12:24:17.876Z,3.10
2023-02-24T12:26:52.986Z,2.67
2023-02-24T12:29:31.108Z,3.07
2023-02-24T12:32:03.990Z,1.83
2023-02-24T12:34:38.197Z,2.93
2023-02-24T12:37:16.659Z,3.43
2023-02-24T12:39:48.244Z,3.07
2023-02-24T12:42:21.007Z,3.60
2023-02-24T12:44:52.509Z,2.57
2023-02-24T12:47:25.404Z,2.50
2023-02-24T12:49:57.356Z,2.53
2023-02-24T12:52:32.206Z,2.97
2023-02-24T12:55:02.659Z,3.03
2023-02-24T12:57:33.846Z,2.43
2023-02-24T13:00:05.420Z,3.10
2023-02-24T13:02:43.239Z,2.70
2023-02-24T13:05:14.303Z,3.27
2023-02-24T13:07:49.028Z,3.10
2023-02-24T13:10:22.626Z,3.07
2023-02-24T13:12:54.899Z,3.63
2023-02-24T13:15:23.315Z,2.90
2023-02-24T13:17:52.137Z,14.30
2023-02-24T13:20:26.597Z,4.03
2023-02-24T13:22:55.447Z,4.00
2023-02-24T13:25:23.983Z,3.90
2023-02-24T13:27:56.703Z,3.20
2023-02-24T13:30:27.039Z,3.47
2023-02-24T13:33:02.342Z,3.40
2023-02-24T13:35:31.405Z,3.73
2023-02-24T13:38:07.831Z,3.20
2023-02-24T13:40:35.396Z,3.50
2023-02-24T13:43:04.723Z,3.63
2023-02-24T13:45:32.487Z,3.67
2023-02-24T13:48:19.287Z,3.67
2023-02-24T13:50:58.232Z,3.70
2023-02-24T13:53:37.110Z,3.97
2023-02-24T13:56:11.247Z,3.70
2023-02-24T13:58:45.921Z,3.63
2023-02-24T14:01:14.934Z,4.13
2023-02-24T14:03:43.497Z,3.97
2023-02-24T14:06:15.608Z,3.27
2023-02-24T14:08:45.140Z,4.40
2023-02-24T14:11:14.420Z,4.00
2023-02-24T14:13:45.646Z,4.50
2023-02-24T14:16:18.103Z,3.87
2023-02-24T14:18:52.720Z,4.00
2023-02-24T14:21:21.095Z,3.30
2023-02-24T14:23:55.552Z,3.97
2023-02-24T14:26:23.237Z,3.73
2023-02-24T14:28:54.038Z,3.07
2023-02-24T14:31:23.159Z,3.37
2023-02-24T14:33:55.242Z,2.80
2023-02-24T14:36:25.121Z,2.20
2023-02-24T14:39:02.077Z,3.60
2023-02-24T14:41:29.715Z,3.80
2023-02-24T14:43:57.293Z,2.43
2023-02-24T14:46:25.214Z,3.27
2023-02-24T14:48:54.058Z,2.73
2023-02-24T14:51:23.816Z,4.03
2023-02-24T14:53:52.731Z,3.43
2023-02-24T14:56:22.359Z,3.57
2023-02-24T14:58:52.499Z,3.77
2023-02-24T15:01:23.983Z,3.97
2023-02-24T15:03:52.671Z,3.77
2023-02-24T15:06:21.985Z,3.10
2023-02-24T15:08:50.330Z,3.30
2023-02-24T15:11:21.731Z,3.93
2023-02-24T15:13:50.894Z,3.60
2023-02-24T15:16:20.870Z,4.00
2023-02-24T15:18:51.466Z,3.53
2023-02-24T15:21:23.065Z,2.77
2023-02-24T15:23:50.478Z,3.00
2023-02-24T15:26:29.668Z,3.77
2023-02-24T15:29:01.125Z,3.30
2023-02-24T15:31:29.500Z,1.90
2023-02-24T15:33:59.824Z,3.30
2023-02-24T15:36:28.653Z,2.90
2023-02-24T15:38:58.114Z,2.80
2023-02-24T15:41:25.498Z,3.47
2023-02-24T15:43:56.375Z,3.73
2023-02-24T15:46:25.662Z,3.50
2023-02-24T15:48:54.143Z,2.90
2023-02-24T15:51:26.098Z,3.10
2023-02-24T15:53:53.762Z,3.07
2023-02-24T15:56:22.085Z,3.17
2023-02-24T15:58:49.720Z,3.07
2023-02-24T16:01:18.426Z,3.43
2023-02-24T16:03:45.828Z,3.17
2023-02-24T16:06:18.342Z,3.17
2023-02-24T16:08:46.458Z,3.10
2023-02-24T16:11:14.317Z,2.90
2023-02-24T16:13:44.284Z,3.30
2023-02-24T16:16:13.016Z,2.50
2023-02-24T16:18:42.213Z,2.77
2023-02-24T16:21:09.618Z,3.43
2023-02-24T16:23:40.690Z,2.90
2023-02-24T16:26:09.179Z,3.07
2023-02-24T16:28:36.526Z,2.83
2023-02-24T16:31:04.286Z,2.37
2023-02-24T16:33:38.836Z,2.97
2023-02-24T16:36:13.830Z,3.23
2023-02-24T16:38:42.888Z,2.40
2023-02-24T16:41:10.815Z,3.00
2023-02-24T16:43:38.186Z,3.10
2023-02-24T16:46:06.804Z,3.10
2023-02-24T16:48:37.285Z,2.20
2023-02-24T16:51:05.280Z,1.97
2023-02-24T16:53:34.375Z,2.30
2023-02-24T16:56:01.936Z,1.97
2023-02-24T16:58:29.253Z,1.57
2023-02-24T17:00:58.989Z,1.13
2023-02-24T17:03:28.142Z,2.67
2023-02-24T17:05:56.150Z,3.27
2023-02-24T17:08:23.953Z,2.00
2023-02-24T17:10:52.911Z,1.67
2023-02-24T17:13:21.378Z,2.80
2023-02-24T17:15:49.684Z,2.77
2023-02-24T17:18:17.026Z,2.63
2023-02-24T17:20:44.402Z,2.80
2023-02-24T17:23:12.120Z,3.27
2023-02-24T17:25:39.681Z,2.87
2023-02-24T17:28:08.609Z,1.53
2023-02-24T17:30:36.316Z,1.50
2023-02-24T17:33:04.138Z,2.40
2023-02-24T17:35:31.610Z,1.57
2023-02-24T17:37:58.938Z,2.13
2023-02-24T17:40:26.323Z,1.73
2023-02-24T17:42:53.641Z,2.20
2023-02-24T17:45:22.312Z,1.67
2023-02-24T17:47:52.560Z,2.40
2023-02-24T17:50:20.021Z,2.93
2023-02-24T17:52:47.762Z,1.90
2023-02-24T17:55:15.428Z,1.07
2023-02-24T17:57:43.234Z,2.07
2023-02-24T18:00:12.460Z,1.53
2023-02-24T18:02:41.255Z,0.63
2023-02-24T18:05:08.888Z,1.83
2023-02-24T18:07:36.561Z,2.03
2023-02-24T18:10:04.088Z,1.20
2023-02-24T18:12:31.481Z,1.33
2023-02-24T18:15:07.904Z,1.63
2023-02-24T18:17:37.324Z,1.93
2023-02-24T18:20:06.746Z,1.77
2023-02-24T18:22:34.189Z,1.40
2023-02-24T18:25:01.822Z,0.73
2023-02-24T18:27:29.386Z,1.37
2023-02-24T18:29:56.754Z,1.17
2023-02-24T18:32:24.291Z,1.33
2023-02-24T18:34:51.791Z,1.40
2023-02-24T18:37:22.069Z,1.70
2023-02-24T18:39:50.756Z,0.87
2023-02-24T18:42:18.273Z,1.20
2023-02-24T18:44:45.733Z,1.33
2023-02-24T18:47:13.105Z,0.77
2023-02-24T18:49:40.633Z,0.40
2023-02-24T18:52:08.578Z,0.77
2023-02-24T18:54:37.537Z,1.20
2023-02-24T18:57:04.995Z,1.40
2023-02-24T18:59:32.475Z,1.27
2023-02-24T19:01:59.889Z,1.37
2023-02-24T19:04:27.360Z,0.70
2023-02-24T19:06:54.704Z,1.10
2023-02-24T19:09:23.792Z,0.87
2023-02-24T19:11:54.147Z,0.87
2023-02-24T19:14:22.437Z,0.83
2023-02-24T19:16:50.134Z,1.10
2023-02-24T19:19:17.580Z,0.80
2023-02-24T19:21:45.844Z,1.00
2023-02-24T19:24:13.681Z,0.40
2023-02-24T19:26:42.622Z,1.03
2023-02-24T19:29:11.928Z,0.40
2023-02-24T19:31:39.809Z,0.30
2023-02-24T19:34:08.541Z,0.40
2023-02-24T19:36:36.834Z,0.60
2023-02-24T19:39:04.768Z,0.30
2023-02-24T19:41:32.666Z,0.63
2023-02-24T19:44:00.026Z,0.37
2023-02-24T19:46:32.799Z,1.10
2023-02-24T19:49:00.258Z,1.03
2023-02-24T19:51:27.840Z,1.20
2023-02-24T19:53:56.121Z,1.23
2023-02-24T19:56:24.318Z,0.87
2023-02-24T19:58:53.297Z,0.60
2023-02-24T20:01:20.786Z,0.30
2023-02-24T20:03:54.401Z,1.03
2023-02-24T20:06:22.969Z,1.50
2023-02-24T20:08:50.547Z,1.60
2023-02-24T20:11:18.644Z,1.90
2023-02-24T20:13:46.159Z,1.67
2023-02-24T20:16:14.646Z,0.60
2023-02-24T20:18:42.728Z,1.53
2023-02-24T20:21:11.887Z,1.57
2023-02-24T20:23:39.443Z,1.10
2023-02-24T20:26:06.952Z,2.33
2023-02-24T20:28:34.322Z,2.50
2023-02-24T20:31:07.747Z,2.50
2023-02-24T20:33:35.374Z,1.73
2023-02-24T20:36:06.993Z,1.00
2023-02-24T20:38:36.716Z,2.00
2023-02-24T20:41:04.560Z,1.97
2023-02-24T20:43:32.419Z,3.10
2023-02-24T20:46:00.310Z,2.93
2023-02-24T20:48:27.977Z,2.53
2023-02-24T20:50:55.656Z,2.43
2023-02-24T20:53:22.991Z,1.33
2023-02-24T20:55:51.699Z,1.60
2023-02-24T20:58:19.054Z,2.60
2023-02-24T21:00:46.378Z,3.37
2023-02-24T21:03:13.896Z,1.43
2023-02-24T21:05:41.261Z,1.87
2023-02-24T21:08:09.039Z,2.67
2023-02-24T21:10:36.411Z,1.93
2023-02-24T21:13:08.300Z,3.00
2023-02-24T21:15:35.719Z,1.23
2023-02-24T21:18:03.378Z,2.50
2023-02-24T21:20:30.869Z,3.30
2023-02-24T21:22:58.404Z,1.23
2023-02-24T21:25:27.734Z,3.43
2023-02-24T21:27:55.689Z,1.77
2023-02-24T21:30:24.863Z,3.90
2023-02-24T21:32:52.231Z,3.43
2023-02-24T21:35:19.625Z,1.37
2023-02-24T21:37:47.089Z,3.20
2023-02-24T21:40:17.544Z,2.80
2023-02-24T21:42:47.201Z,2.23
2023-02-24T21:45:14.848Z,3.97
2023-02-24T21:47:44.045Z,2.43
2023-02-24T21:50:13.601Z,2.00
2023-02-24T21:52:41.412Z,2.30
2023-02-24T21:55:10.036Z,4.37
2023-02-24T21:57:41.001Z,3.77
2023-02-24T22:00:19.082Z,3.67
2023-02-24T22:02:48.813Z,2.63
2023-02-24T22:05:16.613Z,2.07
2023-02-24T22:07:44.608Z,2.07
2023-02-24T22:10:13.040Z,4.60
2023-02-24T22:12:40.646Z,2.27
2023-02-24T22:15:08.923Z,2.07
2023-02-24T22:17:36.752Z,2.40
2023-02-24T22:20:06.423Z,3.10
2023-02-24T22:22:36.666Z,3.70
2023-02-24T22:25:04.606Z,2.70
2023-02-24T22:27:31.997Z,4.43
2023-02-24T22:29:59.337Z,4.23
2023-02-24T22:32:26.780Z,4.13
2023-02-24T22:34:54.176Z,3.47
2023-02-24T22:37:23.075Z,4.57
2023-02-24T22:39:50.483Z,3.83
2023-02-24T22:42:17.859Z,3.97
2023-02-24T22:44:45.219Z,4.20
2023-02-24T22:47:12.635Z,4.33
2023-02-24T22:49:42.100Z,4.90
2023-02-24T22:52:09.605Z,3.80
2023-02-24T22:54:38.372Z,4.50
2023-02-24T22:57:05.735Z,3.50
2023-02-24T22:59:33.053Z,2.87
2023-02-24T23:02:00.409Z,2.77
2023-02-24T23:04:29.152Z,3.33
2023-02-24T23:06:57.225Z,4.27
2023-02-24T23:09:25.356Z,4.20
2023-02-24T23:11:54.035Z,2.00
2023-02-24T23:14:21.446Z,2.90
2023-02-24T23:16:53.548Z,3.40
2023-02-24T23:19:21.021Z,4.60
2023-02-24T23:21:49.602Z,3.10
2023-02-24T23:24:17.706Z,3.27
2023-02-24T23:26:46.097Z,3.03
2023-02-24T23:29:17.204Z,2.10
2023-02-24T23:31:45.079Z,1.83
2023-02-24T23:34:13.071Z,4.33
2023-02-24T23:36:41.317Z,2.17
2023-02-24T23:39:09.012Z,2.00
2023-02-24T23:41:36.733Z,1.57
2023-02-24T23:44:04.284Z,1.40
2023-02-24T23:46:34.497Z,1.10
2023-02-24T23:49:01.962Z,2.27
2023-02-24T23:51:45.717Z,1.93
2023-02-24T23:54:15.778Z,2.97
2023-02-24T23:56:43.107Z,2.37
2023-02-24T23:59:11.086Z,2.60
